sensor_id;sensor_type;location;lat;lon;timestamp;temperature;humidity
69598;SHT31;56802;51.184;-115.558;2022-08-07T00:02:12;23.68;23.97
69598;SHT31;56802;51.184;-115.558;2022-08-07T00:05:02;23.63;23.98
69598;SHT31;56802;51.184;-115.558;2022-08-07T00:07:32;23.57;23.55
69598;SHT31;56802;51.184;-115.558;2022-08-07T00:10:07;23.50;23.54
69598;SHT31;56802;51.184;-115.558;2022-08-07T00:12:56;23.49;23.64
69598;SHT31;56802;51.184;-115.558;2022-08-07T00:15:48;23.53;23.65
69598;SHT31;56802;51.184;-115.558;2022-08-07T00:18:21;23.52;23.67
69598;SHT31;56802;51.184;-115.558;2022-08-07T00:20:58;23.42;23.79
69598;SHT31;56802;51.184;-115.558;2022-08-07T00:23:45;23.38;23.98
69598;SHT31;56802;51.184;-115.558;2022-08-07T00:26:14;23.38;24.02
69598;SHT31;56802;51.184;-115.558;2022-08-07T00:29:04;23.41;23.99
69598;SHT31;56802;51.184;-115.558;2022-08-07T00:31:33;23.46;23.85
69598;SHT31;56802;51.184;-115.558;2022-08-07T00:34:07;23.48;23.69
69598;SHT31;56802;51.184;-115.558;2022-08-07T00:36:37;23.51;23.76
69598;SHT31;56802;51.184;-115.558;2022-08-07T00:39:09;23.50;23.60
69598;SHT31;56802;51.184;-115.558;2022-08-07T00:41:52;23.48;23.93
69598;SHT31;56802;51.184;-115.558;2022-08-07T00:44:31;23.49;23.84
69598;SHT31;56802;51.184;-115.558;2022-08-07T00:47:07;23.50;23.95
69598;SHT31;56802;51.184;-115.558;2022-08-07T00:49:56;23.48;23.97
69598;SHT31;56802;51.184;-115.558;2022-08-07T00:52:46;23.44;24.00
69598;SHT31;56802;51.184;-115.558;2022-08-07T00:55:18;23.43;24.02
69598;SHT31;56802;51.184;-115.558;2022-08-07T00:58:08;23.44;24.10
69598;SHT31;56802;51.184;-115.558;2022-08-07T01:00:37;23.47;24.02
69598;SHT31;56802;51.184;-115.558;2022-08-07T01:03:19;23.47;24.01
69598;SHT31;56802;51.184;-115.558;2022-08-07T01:06:09;23.44;23.79
69598;SHT31;56802;51.184;-115.558;2022-08-07T01:08:41;23.41;24.15
69598;SHT31;56802;51.184;-115.558;2022-08-07T01:11:19;23.39;24.13
69598;SHT31;56802;51.184;-115.558;2022-08-07T01:14:09;23.33;24.07
69598;SHT31;56802;51.184;-115.558;2022-08-07T01:16:42;23.32;24.08
69598;SHT31;56802;51.184;-115.558;2022-08-07T01:19:14;23.30;24.05
69598;SHT31;56802;51.184;-115.558;2022-08-07T01:21:46;23.28;24.03
69598;SHT31;56802;51.184;-115.558;2022-08-07T01:24:21;23.24;24.02
69598;SHT31;56802;51.184;-115.558;2022-08-07T01:26:54;23.20;23.90
69598;SHT31;56802;51.184;-115.558;2022-08-07T01:29:24;23.18;23.83
69598;SHT31;56802;51.184;-115.558;2022-08-07T01:31:59;23.17;24.02
69598;SHT31;56802;51.184;-115.558;2022-08-07T01:34:37;23.15;24.08
69598;SHT31;56802;51.184;-115.558;2022-08-07T01:37:15;23.11;24.14
69598;SHT31;56802;51.184;-115.558;2022-08-07T01:39:45;23.05;24.28
69598;SHT31;56802;51.184;-115.558;2022-08-07T01:42:16;22.99;24.51
69598;SHT31;56802;51.184;-115.558;2022-08-07T01:45:05;22.89;24.78
69598;SHT31;56802;51.184;-115.558;2022-08-07T01:47:44;22.81;24.59
69598;SHT31;56802;51.184;-115.558;2022-08-07T01:50:35;22.72;24.50
69598;SHT31;56802;51.184;-115.558;2022-08-07T01:53:08;22.66;24.51
69598;SHT31;56802;51.184;-115.558;2022-08-07T01:55:50;22.61;24.69
69598;SHT31;56802;51.184;-115.558;2022-08-07T01:58:40;22.57;24.74
69598;SHT31;56802;51.184;-115.558;2022-08-07T02:01:23;22.51;24.90
69598;SHT31;56802;51.184;-115.558;2022-08-07T02:04:26;22.40;24.78
69598;SHT31;56802;51.184;-115.558;2022-08-07T02:07:22;22.31;24.87
69598;SHT31;56802;51.184;-115.558;2022-08-07T02:10:16;22.22;24.85
69598;SHT31;56802;51.184;-115.558;2022-08-07T02:12:51;22.12;25.15
69598;SHT31;56802;51.184;-115.558;2022-08-07T02:15:25;22.03;25.30
69598;SHT31;56802;51.184;-115.558;2022-08-07T02:17:59;21.95;25.45
69598;SHT31;56802;51.184;-115.558;2022-08-07T02:20:32;21.88;25.60
69598;SHT31;56802;51.184;-115.558;2022-08-07T02:23:02;21.82;25.77
69598;SHT31;56802;51.184;-115.558;2022-08-07T02:25:38;21.74;26.03
69598;SHT31;56802;51.184;-115.558;2022-08-07T02:28:30;21.63;26.45
69598;SHT31;56802;51.184;-115.558;2022-08-07T02:31:02;21.53;26.70
69598;SHT31;56802;51.184;-115.558;2022-08-07T02:33:54;21.42;26.98
69598;SHT31;56802;51.184;-115.558;2022-08-07T02:36:30;21.32;27.17
69598;SHT31;56802;51.184;-115.558;2022-08-07T02:39:02;21.23;27.41
69598;SHT31;56802;51.184;-115.558;2022-08-07T02:41:55;21.12;27.64
69598;SHT31;56802;51.184;-115.558;2022-08-07T02:44:25;21.04;27.71
69598;SHT31;56802;51.184;-115.558;2022-08-07T02:47:02;20.95;27.91
69598;SHT31;56802;51.184;-115.558;2022-08-07T02:49:45;20.86;28.06
69598;SHT31;56802;51.184;-115.558;2022-08-07T02:52:28;20.78;28.36
69598;SHT31;56802;51.184;-115.558;2022-08-07T02:55:10;20.67;28.51
69598;SHT31;56802;51.184;-115.558;2022-08-07T02:58:10;20.55;28.79
69598;SHT31;56802;51.184;-115.558;2022-08-07T03:00:48;20.46;28.80
69598;SHT31;56802;51.184;-115.558;2022-08-07T03:03:23;20.40;28.79
69598;SHT31;56802;51.184;-115.558;2022-08-07T03:06:15;20.34;28.95
69598;SHT31;56802;51.184;-115.558;2022-08-07T03:09:07;20.25;29.12
69598;SHT31;56802;51.184;-115.558;2022-08-07T03:11:38;20.21;29.00
69598;SHT31;56802;51.184;-115.558;2022-08-07T03:14:18;20.16;29.09
69598;SHT31;56802;51.184;-115.558;2022-08-07T03:16:50;20.12;29.11
69598;SHT31;56802;51.184;-115.558;2022-08-07T03:19:20;20.07;29.25
69598;SHT31;56802;51.184;-115.558;2022-08-07T03:22:03;20.00;29.52
69598;SHT31;56802;51.184;-115.558;2022-08-07T03:24:45;19.90;29.92
69598;SHT31;56802;51.184;-115.558;2022-08-07T03:27:15;19.82;30.16
69598;SHT31;56802;51.184;-115.558;2022-08-07T03:30:06;19.74;30.21
69598;SHT31;56802;51.184;-115.558;2022-08-07T03:32:40;19.69;30.31
69598;SHT31;56802;51.184;-115.558;2022-08-07T03:35:26;19.63;30.72
69598;SHT31;56802;51.184;-115.558;2022-08-07T03:38:09;19.53;31.03
69598;SHT31;56802;51.184;-115.558;2022-08-07T03:40:41;19.46;31.20
69598;SHT31;56802;51.184;-115.558;2022-08-07T03:43:27;19.39;31.40
69598;SHT31;56802;51.184;-115.558;2022-08-07T03:45:59;19.34;31.44
69598;SHT31;56802;51.184;-115.558;2022-08-07T03:48:43;19.28;31.83
69598;SHT31;56802;51.184;-115.558;2022-08-07T03:51:29;19.22;32.03
69598;SHT31;56802;51.184;-115.558;2022-08-07T03:54:21;19.15;32.19
69598;SHT31;56802;51.184;-115.558;2022-08-07T03:57:11;19.11;32.33
69598;SHT31;56802;51.184;-115.558;2022-08-07T04:00:02;19.06;32.55
69598;SHT31;56802;51.184;-115.558;2022-08-07T04:02:40;18.99;32.80
69598;SHT31;56802;51.184;-115.558;2022-08-07T04:05:18;18.94;33.06
69598;SHT31;56802;51.184;-115.558;2022-08-07T04:07:54;18.89;33.31
69598;SHT31;56802;51.184;-115.558;2022-08-07T04:10:26;18.83;33.58
69598;SHT31;56802;51.184;-115.558;2022-08-07T04:13:04;18.75;33.83
69598;SHT31;56802;51.184;-115.558;2022-08-07T04:15:41;18.64;33.98
69598;SHT31;56802;51.184;-115.558;2022-08-07T04:18:14;18.55;34.24
69598;SHT31;56802;51.184;-115.558;2022-08-07T04:21:05;18.44;34.43
69598;SHT31;56802;51.184;-115.558;2022-08-07T04:23:35;18.37;34.57
69598;SHT31;56802;51.184;-115.558;2022-08-07T04:26:27;18.28;34.71
69598;SHT31;56802;51.184;-115.558;2022-08-07T04:28:57;18.20;34.97
69598;SHT31;56802;51.184;-115.558;2022-08-07T04:31:28;18.13;35.14
69598;SHT31;56802;51.184;-115.558;2022-08-07T04:34:20;18.09;35.32
69598;SHT31;56802;51.184;-115.558;2022-08-07T04:36:58;18.05;35.50
69598;SHT31;56802;51.184;-115.558;2022-08-07T04:39:33;17.99;35.74
69598;SHT31;56802;51.184;-115.558;2022-08-07T04:42:13;17.95;35.86
69598;SHT31;56802;51.184;-115.558;2022-08-07T04:44:43;17.94;35.97
69598;SHT31;56802;51.184;-115.558;2022-08-07T04:47:42;17.90;36.09
69598;SHT31;56802;51.184;-115.558;2022-08-07T04:54:03;17.79;36.71
69598;SHT31;56802;51.184;-115.558;2022-08-07T04:57:01;17.72;36.86
69598;SHT31;56802;51.184;-115.558;2022-08-07T05:00:20;17.64;37.17
69598;SHT31;56802;51.184;-115.558;2022-08-07T05:06:35;17.51;37.44
69598;SHT31;56802;51.184;-115.558;2022-08-07T05:09:49;17.46;37.82
69598;SHT31;56802;51.184;-115.558;2022-08-07T05:12:34;17.43;37.80
69598;SHT31;56802;51.184;-115.558;2022-08-07T05:15:21;17.43;37.91
69598;SHT31;56802;51.184;-115.558;2022-08-07T05:18:01;17.40;38.00
69598;SHT31;56802;51.184;-115.558;2022-08-07T05:20:40;17.35;37.98
69598;SHT31;56802;51.184;-115.558;2022-08-07T05:23:44;17.32;38.12
69598;SHT31;56802;51.184;-115.558;2022-08-07T05:26:32;17.27;38.10
69598;SHT31;56802;51.184;-115.558;2022-08-07T05:29:04;17.23;38.17
69598;SHT31;56802;51.184;-115.558;2022-08-07T05:31:37;17.20;38.32
69598;SHT31;56802;51.184;-115.558;2022-08-07T05:34:18;17.13;38.41
69598;SHT31;56802;51.184;-115.558;2022-08-07T05:36:53;17.09;38.51
69598;SHT31;56802;51.184;-115.558;2022-08-07T05:39:24;17.05;38.69
69598;SHT31;56802;51.184;-115.558;2022-08-07T05:42:14;17.02;38.84
69598;SHT31;56802;51.184;-115.558;2022-08-07T05:45:01;16.96;39.02
69598;SHT31;56802;51.184;-115.558;2022-08-07T05:47:52;16.92;39.06
69598;SHT31;56802;51.184;-115.558;2022-08-07T05:50:29;16.88;39.17
69598;SHT31;56802;51.184;-115.558;2022-08-07T05:53:05;16.84;39.40
69598;SHT31;56802;51.184;-115.558;2022-08-07T05:55:55;16.80;39.34
69598;SHT31;56802;51.184;-115.558;2022-08-07T05:58:31;16.77;39.53
69598;SHT31;56802;51.184;-115.558;2022-08-07T06:01:05;16.72;39.57
69598;SHT31;56802;51.184;-115.558;2022-08-07T06:03:38;16.69;39.99
69598;SHT31;56802;51.184;-115.558;2022-08-07T06:06:27;16.60;40.52
69598;SHT31;56802;51.184;-115.558;2022-08-07T06:08:58;16.52;40.50
69598;SHT31;56802;51.184;-115.558;2022-08-07T06:11:31;16.47;40.59
69598;SHT31;56802;51.184;-115.558;2022-08-07T06:14:03;16.41;40.73
69598;SHT31;56802;51.184;-115.558;2022-08-07T06:16:46;16.36;40.88
69598;SHT31;56802;51.184;-115.558;2022-08-07T06:19:21;16.34;40.96
69598;SHT31;56802;51.184;-115.558;2022-08-07T06:22:15;16.28;41.07
69598;SHT31;56802;51.184;-115.558;2022-08-07T06:24:52;16.23;41.26
69598;SHT31;56802;51.184;-115.558;2022-08-07T06:27:26;16.18;41.43
69598;SHT31;56802;51.184;-115.558;2022-08-07T06:30:16;16.13;41.58
69598;SHT31;56802;51.184;-115.558;2022-08-07T06:33:01;16.10;41.72
69598;SHT31;56802;51.184;-115.558;2022-08-07T06:35:42;16.05;41.86
69598;SHT31;56802;51.184;-115.558;2022-08-07T06:38:31;15.99;41.99
69598;SHT31;56802;51.184;-115.558;2022-08-07T06:41:01;15.94;42.13
69598;SHT31;56802;51.184;-115.558;2022-08-07T06:43:39;15.90;42.29
69598;SHT31;56802;51.184;-115.558;2022-08-07T06:46:27;15.85;42.42
69598;SHT31;56802;51.184;-115.558;2022-08-07T06:49:01;15.81;42.54
69598;SHT31;56802;51.184;-115.558;2022-08-07T06:51:32;15.75;42.65
69598;SHT31;56802;51.184;-115.558;2022-08-07T06:54:15;15.70;42.76
69598;SHT31;56802;51.184;-115.558;2022-08-07T06:57:07;15.66;42.90
69598;SHT31;56802;51.184;-115.558;2022-08-07T06:59:38;15.62;43.02
69598;SHT31;56802;51.184;-115.558;2022-08-07T07:02:30;15.57;43.18
69598;SHT31;56802;51.184;-115.558;2022-08-07T07:05:20;15.52;43.26
69598;SHT31;56802;51.184;-115.558;2022-08-07T07:08:10;15.50;43.39
69598;SHT31;56802;51.184;-115.558;2022-08-07T07:10:51;15.45;43.49
69598;SHT31;56802;51.184;-115.558;2022-08-07T07:13:29;15.42;43.56
69598;SHT31;56802;51.184;-115.558;2022-08-07T07:16:26;15.36;43.86
69598;SHT31;56802;51.184;-115.558;2022-08-07T07:19:16;15.30;44.15
69598;SHT31;56802;51.184;-115.558;2022-08-07T07:22:20;15.24;44.35
69598;SHT31;56802;51.184;-115.558;2022-08-07T07:25:13;15.19;44.47
69598;SHT31;56802;51.184;-115.558;2022-08-07T07:28:14;15.13;44.60
69598;SHT31;56802;51.184;-115.558;2022-08-07T07:31:34;15.05;44.76
69598;SHT31;56802;51.184;-115.558;2022-08-07T07:34:12;15.01;44.83
69598;SHT31;56802;51.184;-115.558;2022-08-07T07:37:01;14.98;44.98
69598;SHT31;56802;51.184;-115.558;2022-08-07T07:39:53;14.93;45.15
69598;SHT31;56802;51.184;-115.558;2022-08-07T07:42:28;14.88;45.23
69598;SHT31;56802;51.184;-115.558;2022-08-07T07:45:01;14.84;45.38
69598;SHT31;56802;51.184;-115.558;2022-08-07T07:47:41;14.79;45.50
69598;SHT31;56802;51.184;-115.558;2022-08-07T07:50:19;14.75;45.60
69598;SHT31;56802;51.184;-115.558;2022-08-07T07:53:04;14.70;45.76
69598;SHT31;56802;51.184;-115.558;2022-08-07T07:55:49;14.66;46.01
69598;SHT31;56802;51.184;-115.558;2022-08-07T07:58:31;14.60;46.19
69598;SHT31;56802;51.184;-115.558;2022-08-07T08:01:07;14.56;46.43
69598;SHT31;56802;51.184;-115.558;2022-08-07T08:03:59;14.45;46.72
69598;SHT31;56802;51.184;-115.558;2022-08-07T08:06:38;14.37;46.89
69598;SHT31;56802;51.184;-115.558;2022-08-07T08:09:18;14.30;46.96
69598;SHT31;56802;51.184;-115.558;2022-08-07T08:11:56;14.27;46.99
69598;SHT31;56802;51.184;-115.558;2022-08-07T08:14:31;14.23;47.06
69598;SHT31;56802;51.184;-115.558;2022-08-07T08:17:06;14.22;47.09
69598;SHT31;56802;51.184;-115.558;2022-08-07T08:20:05;14.18;47.19
69598;SHT31;56802;51.184;-115.558;2022-08-07T08:22:49;14.14;47.30
69598;SHT31;56802;51.184;-115.558;2022-08-07T08:25:40;14.09;47.41
69598;SHT31;56802;51.184;-115.558;2022-08-07T08:28:43;14.04;47.52
69598;SHT31;56802;51.184;-115.558;2022-08-07T08:31:23;13.99;47.69
69598;SHT31;56802;51.184;-115.558;2022-08-07T08:34:23;13.94;47.88
69598;SHT31;56802;51.184;-115.558;2022-08-07T08:36:55;13.90;48.01
69598;SHT31;56802;51.184;-115.558;2022-08-07T08:39:28;13.87;48.21
69598;SHT31;56802;51.184;-115.558;2022-08-07T08:46:04;13.75;48.69
69598;SHT31;56802;51.184;-115.558;2022-08-07T08:48:38;13.71;48.91
69598;SHT31;56802;51.184;-115.558;2022-08-07T08:52:33;13.68;49.10
69598;SHT31;56802;51.184;-115.558;2022-08-07T08:55:26;13.68;49.21
69598;SHT31;56802;51.184;-115.558;2022-08-07T09:11:09;13.43;50.00
69598;SHT31;56802;51.184;-115.558;2022-08-07T09:14:16;13.38;50.15
69598;SHT31;56802;51.184;-115.558;2022-08-07T09:24:31;13.22;50.77
69598;SHT31;56802;51.184;-115.558;2022-08-07T09:30:21;13.14;51.03
69598;SHT31;56802;51.184;-115.558;2022-08-07T09:32:57;13.14;51.02
69598;SHT31;56802;51.184;-115.558;2022-08-07T09:42:55;13.06;51.18
69598;SHT31;56802;51.184;-115.558;2022-08-07T09:45:46;13.02;51.27
69598;SHT31;56802;51.184;-115.558;2022-08-07T09:49:01;12.96;51.45
69598;SHT31;56802;51.184;-115.558;2022-08-07T09:58:13;12.85;51.68
69598;SHT31;56802;51.184;-115.558;2022-08-07T10:36:34;12.23;54.11
69598;SHT31;56802;51.184;-115.558;2022-08-07T10:43:16;12.14;54.44
69598;SHT31;56802;51.184;-115.558;2022-08-07T10:46:07;12.09;54.59
69598;SHT31;56802;51.184;-115.558;2022-08-07T10:49:02;12.06;54.79
69598;SHT31;56802;51.184;-115.558;2022-08-07T10:52:13;12.01;54.89
69598;SHT31;56802;51.184;-115.558;2022-08-07T10:55:07;11.99;54.97
69598;SHT31;56802;51.184;-115.558;2022-08-07T11:10:32;11.76;55.74
69598;SHT31;56802;51.184;-115.558;2022-08-07T11:16:57;11.73;55.67
69598;SHT31;56802;51.184;-115.558;2022-08-07T11:19:39;11.71;55.61
69598;SHT31;56802;51.184;-115.558;2022-08-07T11:28:20;11.62;55.95
69598;SHT31;56802;51.184;-115.558;2022-08-07T11:36:55;11.51;56.47
69598;SHT31;56802;51.184;-115.558;2022-08-07T11:40:22;11.48;56.76
69598;SHT31;56802;51.184;-115.558;2022-08-07T11:43:20;11.46;56.91
69598;SHT31;56802;51.184;-115.558;2022-08-07T11:46:33;11.44;57.00
69598;SHT31;56802;51.184;-115.558;2022-08-07T11:50:00;11.38;57.04
69598;SHT31;56802;51.184;-115.558;2022-08-07T11:53:03;11.32;57.19
69598;SHT31;56802;51.184;-115.558;2022-08-07T11:55:54;11.28;57.28
69598;SHT31;56802;51.184;-115.558;2022-08-07T12:02:35;11.15;57.41
69598;SHT31;56802;51.184;-115.558;2022-08-07T12:09:05;11.09;57.44
69598;SHT31;56802;51.184;-115.558;2022-08-07T12:12:07;11.07;57.55
69598;SHT31;56802;51.184;-115.558;2022-08-07T12:14:51;11.07;57.57
69598;SHT31;56802;51.184;-115.558;2022-08-07T12:17:52;11.06;57.76
69598;SHT31;56802;51.184;-115.558;2022-08-07T12:20:51;11.01;58.01
69598;SHT31;56802;51.184;-115.558;2022-08-07T12:27:14;11.01;58.35
69598;SHT31;56802;51.184;-115.558;2022-08-07T12:30:06;11.02;58.24
69598;SHT31;56802;51.184;-115.558;2022-08-07T12:32:39;11.04;58.35
69598;SHT31;56802;51.184;-115.558;2022-08-07T12:35:49;11.03;58.33
69598;SHT31;56802;51.184;-115.558;2022-08-07T12:38:24;11.03;58.53
69598;SHT31;56802;51.184;-115.558;2022-08-07T12:41:09;10.98;58.73
69598;SHT31;56802;51.184;-115.558;2022-08-07T12:43:41;10.93;58.77
69598;SHT31;56802;51.184;-115.558;2022-08-07T12:46:35;10.91;58.87
69598;SHT31;56802;51.184;-115.558;2022-08-07T12:53:21;10.88;59.10
69598;SHT31;56802;51.184;-115.558;2022-08-07T12:56:24;10.88;59.27
69598;SHT31;56802;51.184;-115.558;2022-08-07T12:59:03;10.84;59.31
69598;SHT31;56802;51.184;-115.558;2022-08-07T13:08:21;10.78;59.61
69598;SHT31;56802;51.184;-115.558;2022-08-07T13:11:56;10.75;59.74
69598;SHT31;56802;51.184;-115.558;2022-08-07T13:21:16;10.96;59.87
69598;SHT31;56802;51.184;-115.558;2022-08-07T13:27:24;11.10;59.79
69598;SHT31;56802;51.184;-115.558;2022-08-07T13:30:27;11.16;59.70
69598;SHT31;56802;51.184;-115.558;2022-08-07T13:36:48;11.30;59.73
69598;SHT31;56802;51.184;-115.558;2022-08-07T13:39:42;11.37;59.75
69598;SHT31;56802;51.184;-115.558;2022-08-07T13:43:06;11.43;59.68
69598;SHT31;56802;51.184;-115.558;2022-08-07T13:45:44;11.48;59.67
69598;SHT31;56802;51.184;-115.558;2022-08-07T13:48:48;11.55;59.62
69598;SHT31;56802;51.184;-115.558;2022-08-07T13:51:25;11.59;59.57
69598;SHT31;56802;51.184;-115.558;2022-08-07T13:54:17;11.66;59.56
69598;SHT31;56802;51.184;-115.558;2022-08-07T13:56:58;11.71;59.65
69598;SHT31;56802;51.184;-115.558;2022-08-07T13:59:44;11.78;59.53
69598;SHT31;56802;51.184;-115.558;2022-08-07T14:02:22;11.84;59.39
69598;SHT31;56802;51.184;-115.558;2022-08-07T14:05:14;11.92;59.31
69598;SHT31;56802;51.184;-115.558;2022-08-07T14:08:05;11.98;59.09
69598;SHT31;56802;51.184;-115.558;2022-08-07T14:10:35;12.06;58.94
69598;SHT31;56802;51.184;-115.558;2022-08-07T14:13:27;12.13;58.79
69598;SHT31;56802;51.184;-115.558;2022-08-07T14:16:01;12.20;58.79
69598;SHT31;56802;51.184;-115.558;2022-08-07T14:18:46;12.30;58.61
69598;SHT31;56802;51.184;-115.558;2022-08-07T14:21:29;12.38;58.52
69598;SHT31;56802;51.184;-115.558;2022-08-07T14:24:28;12.48;58.55
69598;SHT31;56802;51.184;-115.558;2022-08-07T14:27:08;12.56;58.23
69598;SHT31;56802;51.184;-115.558;2022-08-07T14:30:06;12.64;58.01
69598;SHT31;56802;51.184;-115.558;2022-08-07T14:32:56;12.69;57.92
69598;SHT31;56802;51.184;-115.558;2022-08-07T14:35:34;12.78;57.55
69598;SHT31;56802;51.184;-115.558;2022-08-07T14:38:13;12.86;57.46
69598;SHT31;56802;51.184;-115.558;2022-08-07T14:41:01;12.93;57.39
69598;SHT31;56802;51.184;-115.558;2022-08-07T14:43:41;13.02;57.37
69598;SHT31;56802;51.184;-115.558;2022-08-07T14:46:33;13.07;57.40
69598;SHT31;56802;51.184;-115.558;2022-08-07T14:49:27;13.16;57.22
69598;SHT31;56802;51.184;-115.558;2022-08-07T14:52:20;13.26;56.96
69598;SHT31;56802;51.184;-115.558;2022-08-07T14:55:11;13.37;56.95
69598;SHT31;56802;51.184;-115.558;2022-08-07T14:57:47;13.45;56.51
69598;SHT31;56802;51.184;-115.558;2022-08-07T15:00:28;13.57;56.26
69598;SHT31;56802;51.184;-115.558;2022-08-07T15:03:04;13.67;56.29
69598;SHT31;56802;51.184;-115.558;2022-08-07T15:05:46;13.77;56.34
69598;SHT31;56802;51.184;-115.558;2022-08-07T15:08:35;13.90;56.01
69598;SHT31;56802;51.184;-115.558;2022-08-07T15:11:21;14.03;55.92
69598;SHT31;56802;51.184;-115.558;2022-08-07T15:14:19;14.14;55.95
69598;SHT31;56802;51.184;-115.558;2022-08-07T15:16:57;14.23;55.84
69598;SHT31;56802;51.184;-115.558;2022-08-07T15:19:48;14.37;55.40
69598;SHT31;56802;51.184;-115.558;2022-08-07T15:22:45;14.46;54.77
69598;SHT31;56802;51.184;-115.558;2022-08-07T15:25:29;14.55;54.56
69598;SHT31;56802;51.184;-115.558;2022-08-07T15:28:04;14.68;54.46
69598;SHT31;56802;51.184;-115.558;2022-08-07T15:30:58;14.81;54.28
69598;SHT31;56802;51.184;-115.558;2022-08-07T15:33:32;14.92;53.72
69598;SHT31;56802;51.184;-115.558;2022-08-07T15:36:25;15.06;53.46
69598;SHT31;56802;51.184;-115.558;2022-08-07T15:39:15;15.22;53.20
69598;SHT31;56802;51.184;-115.558;2022-08-07T15:42:00;15.39;52.90
69598;SHT31;56802;51.184;-115.558;2022-08-07T15:44:52;15.55;52.50
69598;SHT31;56802;51.184;-115.558;2022-08-07T15:47:26;15.69;52.45
69598;SHT31;56802;51.184;-115.558;2022-08-07T15:50:29;15.84;52.09
69598;SHT31;56802;51.184;-115.558;2022-08-07T15:53:25;15.97;51.22
69598;SHT31;56802;51.184;-115.558;2022-08-07T15:56:19;16.11;50.82
69598;SHT31;56802;51.184;-115.558;2022-08-07T15:59:08;16.29;50.54
69598;SHT31;56802;51.184;-115.558;2022-08-07T16:02:07;16.52;49.82
69598;SHT31;56802;51.184;-115.558;2022-08-07T16:04:54;16.73;49.52
69598;SHT31;56802;51.184;-115.558;2022-08-07T16:07:30;16.87;49.41
69598;SHT31;56802;51.184;-115.558;2022-08-07T16:10:31;17.11;49.10
69598;SHT31;56802;51.184;-115.558;2022-08-07T16:16:30;17.47;48.23
69598;SHT31;56802;51.184;-115.558;2022-08-07T16:22:32;17.99;47.29
69598;SHT31;56802;51.184;-115.558;2022-08-07T16:37:32;18.99;44.56
69598;SHT31;56802;51.184;-115.558;2022-08-07T16:41:14;19.22;44.11
69598;SHT31;56802;51.184;-115.558;2022-08-07T16:47:38;19.54;42.78
69598;SHT31;56802;51.184;-115.558;2022-08-07T16:57:32;19.90;42.16
69598;SHT31;56802;51.184;-115.558;2022-08-07T17:00:36;20.05;42.44
69598;SHT31;56802;51.184;-115.558;2022-08-07T17:16:48;20.64;40.82
69598;SHT31;56802;51.184;-115.558;2022-08-07T17:34:31;21.18;39.26
69598;SHT31;56802;51.184;-115.558;2022-08-07T17:37:28;21.23;39.01
69598;SHT31;56802;51.184;-115.558;2022-08-07T17:43:59;21.37;38.64
69598;SHT31;56802;51.184;-115.558;2022-08-07T17:46:57;21.50;38.78
69598;SHT31;56802;51.184;-115.558;2022-08-07T17:49:49;21.62;38.31
69598;SHT31;56802;51.184;-115.558;2022-08-07T17:52:36;21.70;37.86
69598;SHT31;56802;51.184;-115.558;2022-08-07T17:55:14;21.84;37.48
69598;SHT31;56802;51.184;-115.558;2022-08-07T17:58:14;21.87;37.66
69598;SHT31;56802;51.184;-115.558;2022-08-07T18:00:56;21.94;37.51
69598;SHT31;56802;51.184;-115.558;2022-08-07T18:03:52;22.00;37.05
69598;SHT31;56802;51.184;-115.558;2022-08-07T18:07:11;22.03;36.86
69598;SHT31;56802;51.184;-115.558;2022-08-07T18:10:12;22.04;36.84
69598;SHT31;56802;51.184;-115.558;2022-08-07T18:16:18;22.28;36.74
69598;SHT31;56802;51.184;-115.558;2022-08-07T18:19:28;22.35;36.35
69598;SHT31;56802;51.184;-115.558;2022-08-07T18:22:34;22.44;36.70
69598;SHT31;56802;51.184;-115.558;2022-08-07T18:25:20;22.47;36.14
69598;SHT31;56802;51.184;-115.558;2022-08-07T18:31:35;22.61;36.04
69598;SHT31;56802;51.184;-115.558;2022-08-07T18:53:21;23.21;34.47
69598;SHT31;56802;51.184;-115.558;2022-08-07T18:56:51;23.25;34.33
69598;SHT31;56802;51.184;-115.558;2022-08-07T19:00:07;23.32;34.11
69598;SHT31;56802;51.184;-115.558;2022-08-07T19:03:04;23.34;34.03
69598;SHT31;56802;51.184;-115.558;2022-08-07T19:12:02;23.48;33.97
69598;SHT31;56802;51.184;-115.558;2022-08-07T19:15:22;23.53;33.87
69598;SHT31;56802;51.184;-115.558;2022-08-07T19:18:28;23.53;33.57
69598;SHT31;56802;51.184;-115.558;2022-08-07T19:24:19;23.65;33.84
69598;SHT31;56802;51.184;-115.558;2022-08-07T19:26:57;23.73;33.56
69598;SHT31;56802;51.184;-115.558;2022-08-07T19:30:06;23.79;33.45
69598;SHT31;56802;51.184;-115.558;2022-08-07T19:33:02;23.83;33.53
69598;SHT31;56802;51.184;-115.558;2022-08-07T19:35:39;23.90;33.28
69598;SHT31;56802;51.184;-115.558;2022-08-07T19:38:18;23.93;32.99
69598;SHT31;56802;51.184;-115.558;2022-08-07T19:40:48;24.00;33.14
69598;SHT31;56802;51.184;-115.558;2022-08-07T19:43:24;24.05;32.69
69598;SHT31;56802;51.184;-115.558;2022-08-07T19:46:16;24.08;32.76
69598;SHT31;56802;51.184;-115.558;2022-08-07T19:48:58;24.15;32.45
69598;SHT31;56802;51.184;-115.558;2022-08-07T19:51:34;24.18;32.40
69598;SHT31;56802;51.184;-115.558;2022-08-07T19:54:26;24.23;32.13
69598;SHT31;56802;51.184;-115.558;2022-08-07T19:57:16;24.33;31.77
69598;SHT31;56802;51.184;-115.558;2022-08-07T20:00:30;24.39;31.47
69598;SHT31;56802;51.184;-115.558;2022-08-07T20:03:03;24.44;31.58
69598;SHT31;56802;51.184;-115.558;2022-08-07T20:05:59;24.55;31.84
69598;SHT31;56802;51.184;-115.558;2022-08-07T20:08:32;24.62;31.30
69598;SHT31;56802;51.184;-115.558;2022-08-07T20:11:16;24.69;31.28
69598;SHT31;56802;51.184;-115.558;2022-08-07T20:14:09;24.73;31.20
69598;SHT31;56802;51.184;-115.558;2022-08-07T20:16:59;24.78;31.07
69598;SHT31;56802;51.184;-115.558;2022-08-07T20:19:32;24.84;31.16
69598;SHT31;56802;51.184;-115.558;2022-08-07T20:22:25;24.93;30.95
69598;SHT31;56802;51.184;-115.558;2022-08-07T20:25:00;25.01;30.46
69598;SHT31;56802;51.184;-115.558;2022-08-07T20:27:45;25.07;30.94
69598;SHT31;56802;51.184;-115.558;2022-08-07T20:30:33;25.15;30.39
69598;SHT31;56802;51.184;-115.558;2022-08-07T20:33:13;25.24;30.25
69598;SHT31;56802;51.184;-115.558;2022-08-07T20:36:04;25.29;29.99
69598;SHT31;56802;51.184;-115.558;2022-08-07T20:38:42;25.38;30.02
69598;SHT31;56802;51.184;-115.558;2022-08-07T20:41:31;25.53;29.98
69598;SHT31;56802;51.184;-115.558;2022-08-07T20:44:06;25.56;29.61
69598;SHT31;56802;51.184;-115.558;2022-08-07T20:46:38;25.58;29.65
69598;SHT31;56802;51.184;-115.558;2022-08-07T20:49:12;25.66;29.33